Time;durP1;ratioP1;P1;durP2;ratioP2;P2;SDS_P1;SDS_P2;PMS_P1;PMS_P2;Temp;Humidity;BMP_temperature;BMP_pressure;BME280_temperature;BME280_humidity;BME280_pressure;Samples;Min_cycle;Max_cycle;Signal;HPM_P1;HPM_P2
2021/11/12 00:15:02;;;;;;;176.83;58.63;;;4.40;1.00;6.50;101161.00;;;;4964655;28;21408;-77
2021/11/12 00:17:32;;;;;;;125.17;51.10;;;4.40;1.00;6.50;101163.00;;;;4964341;28;20474;-77
2021/11/12 00:20:02;;;;;;;126.93;53.00;;;4.50;1.00;6.40;101152.00;;;;5008042;28;20972;-78
2021/11/12 00:22:31;;;;;;;143.13;55.30;;;4.40;1.00;6.40;101144.00;;;;5058699;28;20460;-79
2021/11/12 00:25:02;;;;;;;168.43;57.00;;;4.40;1.00;6.40;101156.00;;;;5058661;28;20958;-79
2021/11/12 00:27:33;;;;;;;159.00;57.13;;;4.30;1.00;6.40;101161.00;;;;5073927;28;20517;-78
2021/11/12 00:30:13;;;;;;;197.37;57.60;;;4.30;1.00;6.40;101164.00;;;;5062937;28;20540;-79
2021/11/12 00:32:51;;;;;;;382.10;72.90;;;4.30;1.00;6.40;101114.00;;;;5061142;28;20443;-79
2021/11/12 00:35:27;;;;;;;127.43;52.40;;;4.30;1.00;6.30;101176.00;;;;5060149;28;20468;-78
2021/11/12 00:38:01;;;;;;;374.73;75.93;;;4.30;1.00;6.40;101139.00;;;;5075363;28;20519;-77
2021/11/12 00:40:32;;;;;;;210.83;62.47;;;4.40;1.00;6.30;101156.00;;;;5067241;28;20579;-76
2021/11/12 00:43:11;;;;;;;112.57;52.23;;;4.40;1.00;6.20;101109.00;;;;5060459;28;20457;-78
2021/11/12 00:45:48;;;;;;;139.30;56.73;;;4.50;1.00;6.20;101162.00;;;;5060467;28;20554;-78
2021/11/12 00:48:20;;;;;;;183.60;55.83;;;4.40;1.00;6.20;101123.00;;;;5056657;28;20451;-76
2021/11/12 00:53:55;;;;;;;237.07;63.43;;;4.40;1.00;6.10;101144.00;;;;5069063;28;20977;-78
2021/11/12 00:56:27;;;;;;;412.77;81.80;;;4.40;1.00;6.10;101134.00;;;;5055418;28;20528;-78
2021/11/12 00:59:00;;;;;;;325.13;69.27;;;4.40;1.00;6.20;101145.00;;;;5058126;28;20447;-78
2021/11/12 01:01:32;;;;;;;227.73;63.73;;;4.40;1.00;6.30;101151.00;;;;5050249;28;20475;-78
2021/11/12 01:04:04;;;;;;;286.00;66.90;;;4.40;1.00;6.30;101125.00;;;;5065753;28;20791;-77
2021/11/12 01:06:35;;;;;;;347.43;73.87;;;4.40;1.00;6.30;101126.00;;;;5072600;28;20919;-78
2021/11/12 01:09:10;;;;;;;326.43;72.27;;;4.40;1.00;6.30;101146.00;;;;5045966;28;20486;-77
2021/11/12 01:11:40;;;;;;;271.87;64.67;;;4.40;1.00;6.20;101080.00;;;;5031259;28;20503;-78
2021/11/12 01:14:12;;;;;;;266.60;66.20;;;4.40;1.00;6.10;101158.00;;;;5056947;28;20469;-77
2021/11/12 01:16:41;;;;;;;199.83;60.00;;;4.30;1.00;6.00;101026.00;;;;5059689;28;20479;-77
2021/11/12 01:19:12;;;;;;;200.57;60.90;;;4.30;1.00;6.00;101138.00;;;;5057224;28;20464;-78
2021/11/12 01:21:42;;;;;;;349.00;71.57;;;4.30;1.00;6.00;101154.00;;;;5074939;28;20536;-77
2021/11/12 01:24:12;;;;;;;392.70;72.70;;;4.30;1.00;6.00;101152.00;;;;5059991;28;21014;-77
2021/11/12 01:26:41;;;;;;;383.80;70.43;;;4.30;1.00;6.00;101118.00;;;;5078310;28;20501;-77
2021/11/12 01:29:10;;;;;;;236.20;55.87;;;4.30;1.00;6.10;101109.00;;;;5060841;28;20457;-77
2021/11/12 01:31:39;;;;;;;244.53;58.17;;;4.30;1.00;6.00;101087.00;;;;5081859;28;20493;-78
2021/11/12 01:34:09;;;;;;;157.90;50.87;;;4.30;1.00;6.00;101140.00;;;;5064684;28;20455;-78
2021/11/12 01:36:42;;;;;;;120.13;45.30;;;4.30;1.00;6.10;101107.00;;;;5047041;28;20455;-77
2021/11/12 01:39:14;;;;;;;175.20;51.83;;;4.30;1.00;6.10;101142.00;;;;5075181;28;20523;-77
2021/11/12 01:41:47;;;;;;;149.73;47.20;;;4.30;1.00;6.00;101143.00;;;;5078288;28;20471;-77
2021/11/12 01:44:27;;;;;;;120.63;44.63;;;4.30;1.00;5.90;101164.00;;;;5076906;28;20454;-79
2021/11/12 01:47:09;;;;;;;112.73;42.33;;;4.30;1.00;5.90;101138.00;;;;5054116;28;20480;-79
2021/11/12 01:49:40;;;;;;;86.93;39.00;;;4.20;1.00;5.90;101123.00;;;;5055100;28;20524;-77
2021/11/12 01:52:13;;;;;;;100.30;40.07;;;4.20;1.00;5.80;101122.00;;;;5054016;28;20473;-77
2021/11/12 01:54:57;;;;;;;97.40;39.90;;;4.20;1.00;5.80;101113.00;;;;5071356;28;20454;-77
2021/11/12 02:00:30;;;;;;;108.50;40.83;;;4.10;1.00;5.90;101114.00;;;;5012206;28;21532;-78
2021/11/12 02:02:59;;;;;;;74.83;37.00;;;4.10;1.00;5.90;101124.00;;;;5016166;28;20461;-79
2021/11/12 02:05:28;;;;;;;68.07;34.50;;;4.20;1.00;5.90;101099.00;;;;5025020;28;20464;-78
2021/11/12 02:07:56;;;;;;;57.83;31.40;;;4.10;1.00;6.00;101104.00;;;;5074215;28;20475;-79
2021/11/12 02:10:27;;;;;;;44.57;29.40;;;4.10;1.00;6.00;101091.00;;;;5059061;28;20447;-78
2021/11/12 02:13:03;;;;;;;43.07;27.23;;;4.20;1.00;6.00;101128.00;;;;5058740;28;20459;-78
2021/11/12 02:15:36;;;;;;;40.77;27.17;;;4.20;1.00;6.00;101123.00;;;;5057644;28;20458;-77
2021/11/12 02:18:12;;;;;;;41.83;28.47;;;4.20;1.00;6.00;101094.00;;;;5071945;28;20478;-78
2021/11/12 02:20:52;;;;;;;54.10;29.37;;;4.20;1.00;6.00;101143.00;;;;5070408;28;20486;-78
2021/11/12 02:23:21;;;;;;;44.67;26.03;;;4.20;1.00;6.00;101109.00;;;;5072032;28;21040;-78
2021/11/12 02:25:49;;;;;;;48.07;29.47;;;4.20;1.00;6.00;101101.00;;;;5058542;28;20827;-78
2021/11/12 02:28:18;;;;;;;38.50;25.80;;;4.20;1.00;6.00;101059.00;;;;5059146;28;20487;-78
2021/11/12 02:30:50;;;;;;;36.23;25.13;;;4.20;1.00;6.00;101133.00;;;;5061533;28;20487;-78
2021/11/12 02:33:22;;;;;;;41.17;27.17;;;4.20;1.00;6.00;101133.00;;;;5059218;28;20462;-78
2021/11/12 02:36:03;;;;;;;38.97;25.43;;;4.20;1.00;6.10;101117.00;;;;5077060;28;20497;-79
2021/11/12 02:38:34;;;;;;;45.70;29.00;;;4.20;1.00;5.90;101139.00;;;;5067088;28;20563;-79
2021/11/12 02:41:04;;;;;;;44.90;29.77;;;4.10;1.00;5.90;101142.00;;;;5055341;28;20536;-79
2021/11/12 02:43:33;;;;;;;48.57;27.77;;;4.10;1.00;5.90;101133.00;;;;5053368;28;20490;-78
2021/11/12 02:46:03;;;;;;;42.20;26.43;;;4.00;1.00;6.00;101112.00;;;;5056978;28;20484;-78
2021/11/12 02:48:36;;;;;;;39.33;26.27;;;4.00;1.00;6.00;101132.00;;;;5078556;28;21347;-79
2021/11/12 02:51:09;;;;;;;40.80;26.00;;;4.10;1.00;6.10;101122.00;;;;5062381;28;20470;-79
2021/11/12 02:53:38;;;;;;;45.40;27.97;;;4.10;1.00;6.10;101119.00;;;;5056125;28;20452;-79
2021/11/12 02:56:11;;;;;;;41.80;27.10;;;4.10;1.00;6.10;101118.00;;;;5067048;28;20529;-79
2021/11/12 02:58:41;;;;;;;49.20;28.93;;;4.10;1.00;6.00;101138.00;;;;5057907;28;21075;-79
2021/11/12 03:01:11;;;;;;;39.13;26.07;;;4.00;1.00;6.00;101118.00;;;;5060328;28;20502;-78
2021/11/12 03:03:40;;;;;;;48.27;28.53;;;4.10;1.00;6.10;101113.00;;;;5068223;28;20447;-78
2021/11/12 03:06:10;;;;;;;40.50;26.97;;;4.10;1.00;6.10;101081.00;;;;5052735;28;20464;-77
2021/11/12 03:08:38;;;;;;;42.60;28.60;;;4.10;1.00;6.20;101126.00;;;;5058704;28;20466;-78
2021/11/12 03:11:07;;;;;;;49.00;28.63;;;4.10;1.00;6.20;101076.00;;;;5058726;28;20483;-78
2021/11/12 03:13:36;;;;;;;37.70;26.30;;;4.10;1.00;6.20;101099.00;;;;5065921;28;20447;-79
2021/11/12 03:16:05;;;;;;;48.00;30.40;;;4.10;1.00;6.30;101116.00;;;;5059599;28;20454;-78
2021/11/12 03:18:34;;;;;;;60.57;31.40;;;4.10;1.00;6.20;101111.00;;;;5061014;28;20499;-78
2021/11/12 03:21:03;;;;;;;59.77;31.33;;;4.10;1.00;6.30;101089.00;;;;5063732;28;20493;-79
2021/11/12 03:23:36;;;;;;;50.50;29.60;;;4.10;1.00;6.20;101086.00;;;;5055673;28;20451;-80
2021/11/12 03:26:15;;;;;;;60.10;31.13;;;4.10;1.00;6.20;101069.00;;;;5075413;28;20466;-79
2021/11/12 03:29:07;;;;;;;58.70;31.13;;;4.20;1.00;6.20;101068.00;;;;5063789;28;20517;-78
2021/11/12 04:22:11;;;;;;;40.27;25.43;;;3.80;1.00;5.70;101075.00;;;;5045431;28;20490;-78
2021/11/12 04:41:55;;;;;;;42.40;27.00;;;3.80;1.00;6.00;101055.00;;;;4994819;28;20486;-77
2021/11/12 05:09:58;;;;;;;50.13;30.57;;;3.90;1.00;5.80;101015.00;;;;5060256;28;20469;-79
2021/11/12 05:33:27;;;;;;;42.30;28.00;;;3.80;1.00;5.90;101004.00;;;;5065130;28;20543;-77
2021/11/12 05:43:37;;;;;;;100.67;37.60;;;3.70;1.00;5.40;101012.00;;;;5054099;28;20470;-78
2021/11/12 05:46:22;;;;;;;89.33;37.43;;;3.70;1.00;5.40;101023.00;;;;5065080;28;20451;-79
2021/11/12 05:51:44;;;;;;;71.00;32.63;;;3.70;1.00;5.40;101022.00;;;;5002624;28;20903;-77
2021/11/12 05:57:00;;;;;;;109.33;40.90;;;3.70;1.00;5.30;100997.00;;;;5054804;28;20463;-77
2021/11/12 05:59:29;;;;;;;51.90;31.10;;;3.70;1.00;5.30;101011.00;;;;5071155;28;20491;-78
2021/11/12 06:01:57;;;;;;;83.33;36.53;;;3.70;1.00;5.40;101008.00;;;;5052175;28;20479;-78
2021/11/12 06:04:26;;;;;;;125.27;37.77;;;3.70;1.00;5.40;100997.00;;;;5061417;28;20458;-78
2021/11/12 06:06:55;;;;;;;69.13;31.67;;;3.80;1.00;5.50;100997.00;;;;5054471;28;20444;-78
2021/11/12 06:09:25;;;;;;;87.07;35.10;;;3.80;1.00;5.50;100953.00;;;;5082048;28;20475;-78
2021/11/12 06:11:54;;;;;;;65.67;32.07;;;3.90;1.00;5.60;100951.00;;;;5066727;28;21330;-80
2021/11/12 06:14:22;;;;;;;57.53;30.70;;;3.90;1.00;5.60;100992.00;;;;5056634;28;21036;-78
2021/11/12 06:16:51;;;;;;;67.90;31.73;;;3.90;1.00;5.70;100970.00;;;;5056246;28;20448;-79
2021/11/12 06:19:20;;;;;;;61.47;30.87;;;3.90;1.00;5.80;101023.00;;;;5064491;28;20482;-78
2021/11/12 06:21:49;;;;;;;81.13;34.07;;;3.90;1.00;5.70;100915.00;;;;5055239;28;20551;-79
2021/11/12 06:24:18;;;;;;;56.70;31.43;;;3.90;1.00;5.80;100981.00;;;;5056153;28;21694;-79
2021/11/12 06:26:47;;;;;;;84.03;34.80;;;3.90;1.00;5.80;101002.00;;;;5064337;28;20453;-79
2021/11/12 06:29:16;;;;;;;94.03;34.20;;;3.90;1.00;5.90;100987.00;;;;5074351;28;20468;-79
2021/11/12 06:31:44;;;;;;;94.40;37.57;;;3.90;1.00;5.80;100971.00;;;;5083515;28;20486;-79
2021/11/12 06:34:13;;;;;;;85.57;36.73;;;3.90;1.00;6.00;100994.00;;;;5062289;28;20484;-79
2021/11/12 06:36:41;;;;;;;83.50;36.93;;;3.90;1.00;5.90;100984.00;;;;5065452;28;20550;-80
2021/11/12 06:39:10;;;;;;;86.40;36.40;;;3.90;1.00;5.90;100935.00;;;;5062459;28;20451;-79
2021/11/12 06:41:52;;;;;;;61.47;35.60;;;3.90;1.00;6.00;100978.00;;;;5073910;28;20475;-80
2021/11/12 06:44:51;;;;;;;74.47;37.07;;;4.00;1.00;6.00;100950.00;;;;5060277;28;20469;-77
2021/11/12 06:50:12;;;;;;;66.60;34.80;;;4.00;1.00;6.00;100956.00;;;;5057961;28;20487;-80
2021/11/12 06:52:43;;;;;;;92.27;39.10;;;4.00;1.00;6.10;100979.00;;;;5064662;28;20461;-79
2021/11/12 06:55:14;;;;;;;55.43;34.20;;;4.00;1.00;6.00;100988.00;;;;5056099;28;20452;-79
2021/11/12 06:57:44;;;;;;;106.70;38.90;;;4.00;1.00;6.20;100928.00;;;;5055624;28;20548;-80
2021/11/12 07:00:19;;;;;;;66.03;34.93;;;4.10;1.00;6.20;100992.00;;;;5056329;28;20554;-79
2021/11/12 07:02:48;;;;;;;61.37;35.57;;;4.10;1.00;6.30;100983.00;;;;5047843;28;20470;-79
2021/11/12 07:05:17;;;;;;;53.47;31.57;;;4.20;1.00;6.30;100988.00;;;;5073121;28;20455;-80
2021/11/12 07:07:48;;;;;;;74.03;36.10;;;4.20;1.00;6.20;100982.00;;;;5059728;28;20987;-80
2021/11/12 07:10:17;;;;;;;83.87;37.07;;;4.20;1.00;6.20;100995.00;;;;5060170;28;21054;-80
2021/11/12 07:12:46;;;;;;;76.70;37.10;;;4.20;1.00;6.30;100978.00;;;;5056874;28;20518;-80
2021/11/12 07:15:18;;;;;;;60.67;37.10;;;4.30;1.00;6.30;100957.00;;;;5061535;28;20477;-79
2021/11/12 07:17:47;;;;;;;60.57;36.77;;;4.20;1.00;6.40;100968.00;;;;5060312;28;20483;-79
2021/11/12 07:20:16;;;;;;;67.03;35.40;;;4.30;1.00;6.40;100988.00;;;;5075460;28;20459;-80
2021/11/12 07:22:44;;;;;;;83.40;38.77;;;4.30;1.00;6.30;101020.00;;;;5056938;28;20460;-79
2021/11/12 07:25:13;;;;;;;74.17;37.30;;;4.30;1.00;6.40;100994.00;;;;5065353;28;20494;-79
2021/11/12 07:27:41;;;;;;;55.53;35.17;;;4.20;1.00;6.40;100970.00;;;;5076580;28;20464;-79
2021/11/12 07:30:20;;;;;;;50.03;33.77;;;4.40;1.00;6.50;100994.00;;;;5056822;28;20880;-79
2021/11/12 07:32:50;;;;;;;57.30;34.40;;;4.40;1.00;6.60;101000.00;;;;5065100;28;20467;-79
2021/11/12 07:35:23;;;;;;;50.83;31.90;;;4.50;1.00;6.50;100987.00;;;;5073953;28;20458;-80
2021/11/12 07:37:57;;;;;;;54.73;33.10;;;4.50;1.00;6.60;100957.00;;;;5079834;28;20490;-79
2021/11/12 07:40:41;;;;;;;55.60;31.43;;;4.40;1.00;6.60;100998.00;;;;5064303;28;20450;-81
2021/11/12 07:44:05;;;;;;;56.83;30.40;;;4.40;1.00;6.50;101015.00;;;;5060932;28;20463;-79
2021/11/12 07:46:20;;;;;;;54.23;32.47;;;4.30;1.00;6.40;100994.00;;;;5065273;28;20472;-80
2021/11/12 07:48:48;;;;;;;47.50;30.97;;;4.20;1.00;6.50;100991.00;;;;5064175;28;20548;-79
2021/11/12 07:51:17;;;;;;;55.10;30.57;;;4.30;1.00;6.40;100993.00;;;;5051350;28;20470;-79
2021/11/12 07:53:46;;;;;;;51.20;28.93;;;4.30;1.00;6.60;100971.00;;;;5057209;28;20447;-78
2021/11/12 07:56:15;;;;;;;38.13;27.20;;;4.30;1.00;6.70;101007.00;;;;5065667;28;21071;-79
2021/11/12 07:58:45;;;;;;;33.13;26.83;;;4.40;1.00;6.80;100979.00;;;;5056192;28;20897;-78
2021/11/12 08:01:16;;;;;;;38.73;26.60;;;4.40;1.00;6.80;100987.00;;;;5056551;28;20502;-78
2021/11/12 08:03:47;;;;;;;36.77;25.87;;;4.50;1.00;6.70;100997.00;;;;5055871;28;20451;-78
2021/11/12 08:06:17;;;;;;;36.17;27.90;;;4.40;1.00;6.60;100944.00;;;;5060221;28;20454;-78
2021/11/12 08:08:51;;;;;;;39.93;27.90;;;4.40;1.00;6.60;100997.00;;;;5059086;28;20478;-79
2021/11/12 08:11:24;;;;;;;37.67;26.63;;;4.30;1.00;6.80;100993.00;;;;5074123;28;20471;-78
2021/11/12 08:13:56;;;;;;;40.20;26.70;;;4.40;1.00;6.80;100973.00;;;;5059421;28;20464;-79
2021/11/12 08:19:36;;;;;;;38.80;26.60;;;4.50;1.00;6.80;100985.00;;;;5040548;28;20563;-79
2021/11/12 08:22:08;;;;;;;36.27;25.17;;;4.40;1.00;6.90;100986.00;;;;5056104;28;20471;-79
2021/11/12 08:24:43;;;;;;;34.20;25.57;;;4.50;1.00;6.70;100967.00;;;;5077577;28;20500;-79
2021/11/12 08:30:07;;;;;;;34.63;25.50;;;4.60;1.00;6.80;100983.00;;;;5046784;28;20487;-81
2021/11/12 08:32:58;;;;;;;32.53;25.60;;;4.50;1.00;6.80;100973.00;;;;5097649;28;20482;-81
2021/11/12 08:36:01;;;;;;;35.10;26.47;;;4.50;1.00;6.80;100986.00;;;;5080946;28;20435;-81
2021/11/12 08:38:37;;;;;;;37.60;26.47;;;4.50;1.00;6.70;100957.00;;;;5094250;28;20506;-78
2021/11/12 08:41:09;;;;;;;32.57;23.87;;;4.50;1.00;6.40;100944.00;;;;5080964;28;20476;-80
2021/11/12 08:43:41;;;;;;;30.67;24.20;;;4.50;1.00;6.50;100955.00;;;;5080242;28;20508;-79
2021/11/12 08:46:24;;;;;;;32.77;24.60;;;4.40;1.00;6.50;100963.00;;;;5083719;28;20467;-80
2021/11/12 08:48:57;;;;;;;35.27;25.93;;;4.30;1.00;6.60;100985.00;;;;5079545;28;20463;-79
2021/11/12 08:51:32;;;;;;;36.10;25.90;;;4.30;1.00;6.60;100970.00;;;;5089584;28;20478;-79
2021/11/12 08:54:03;;;;;;;30.90;26.13;;;4.40;1.00;6.80;100954.00;;;;5070445;28;20443;-78
2021/11/12 08:56:32;;;;;;;33.00;24.30;;;4.40;1.00;6.80;100919.00;;;;5065078;28;20527;-78
2021/11/12 08:59:01;;;;;;;33.17;24.40;;;4.50;1.00;6.80;100965.00;;;;5064691;28;20460;-78
2021/11/12 09:01:29;;;;;;;32.00;24.77;;;4.50;1.00;6.90;100968.00;;;;5080231;28;20914;-78
2021/11/12 09:03:59;;;;;;;33.70;25.90;;;4.60;1.00;7.00;100781.00;;;;5048705;28;20463;-79
2021/11/12 09:06:28;;;;;;;33.27;26.03;;;4.60;1.00;7.10;100962.00;;;;5051435;28;20475;-78
2021/11/12 09:08:57;;;;;;;39.10;28.40;;;4.70;1.00;7.20;100968.00;;;;5075874;28;20451;-79
2021/11/12 09:11:26;;;;;;;37.17;27.63;;;4.70;1.00;7.10;100947.00;;;;5061774;28;20483;-78
2021/11/12 09:13:57;;;;;;;40.90;29.73;;;4.70;1.00;7.10;100929.00;;;;5074831;28;20466;-79
2021/11/12 09:16:31;;;;;;;41.50;31.80;;;4.70;1.00;6.70;100965.00;;;;5054846;28;20452;-80
2021/11/12 09:19:06;;;;;;;40.97;29.33;;;4.60;1.00;7.30;100935.00;;;;5077327;28;20539;-79
2021/11/12 09:21:35;;;;;;;41.07;30.30;;;4.70;1.00;7.30;100952.00;;;;5057506;28;20487;-79
2021/11/12 09:24:10;;;;;;;41.87;29.10;;;4.80;1.00;7.10;100928.00;;;;5068480;28;20478;-78
2021/11/12 09:26:39;;;;;;;38.43;29.10;;;4.80;1.00;7.00;100970.00;;;;5059787;28;20986;-79
2021/11/12 09:29:10;;;;;;;37.63;27.63;;;4.70;1.00;7.00;100956.00;;;;5075145;28;20944;-79
2021/11/12 09:31:39;;;;;;;41.17;28.10;;;4.80;1.00;7.30;100937.00;;;;5067271;28;20604;-79
2021/11/12 09:34:11;;;;;;;35.83;28.93;;;4.70;1.00;7.30;100903.00;;;;5070038;28;20486;-79
2021/11/12 09:36:40;;;;;;;33.00;26.00;;;4.80;1.00;7.30;100910.00;;;;5071796;28;20547;-79
2021/11/12 09:39:09;;;;;;;33.07;25.60;;;4.80;1.00;7.40;100906.00;;;;5074830;28;20455;-78
2021/11/12 09:41:38;;;;;;;37.47;25.60;;;4.90;1.00;7.40;100871.00;;;;5065772;28;21000;-78
2021/11/12 09:44:07;;;;;;;34.67;27.33;;;4.90;1.00;7.50;100882.00;;;;5062329;28;20460;-79
2021/11/12 09:46:36;;;;;;;33.10;25.83;;;5.00;1.00;7.50;100961.00;;;;5064729;28;20508;-79
2021/11/12 09:49:06;;;;;;;36.87;27.50;;;5.00;1.00;7.50;100929.00;;;;5054966;28;20570;-78
2021/11/12 09:51:36;;;;;;;34.67;28.10;;;5.10;1.00;7.40;100946.00;;;;5051933;28;20487;-78
2021/11/12 09:54:05;;;;;;;40.50;28.67;;;5.00;1.00;7.40;100941.00;;;;5045124;28;20447;-79
2021/11/12 09:56:36;;;;;;;33.70;28.00;;;5.00;1.00;7.40;100936.00;;;;5066564;28;20495;-79
2021/11/12 09:59:05;;;;;;;36.20;29.00;;;5.10;1.00;7.40;100908.00;;;;5057666;28;20555;-78
2021/11/12 10:01:38;;;;;;;36.00;27.60;;;5.10;1.00;7.30;100936.00;;;;5062141;28;20554;-81
2021/11/12 10:04:09;;;;;;;38.33;28.63;;;5.10;1.00;7.20;100934.00;;;;5073203;28;20477;-78
2021/11/12 10:06:45;;;;;;;35.63;27.70;;;5.00;1.00;6.90;100940.00;;;;5056934;28;20454;-79
2021/11/12 10:09:17;;;;;;;40.63;31.07;;;4.80;1.00;7.00;100920.00;;;;5062536;28;20493;-79
2021/11/12 10:11:55;;;;;;;32.80;26.67;;;4.80;1.00;7.10;100900.00;;;;5075394;28;20533;-79
2021/11/12 10:14:37;;;;;;;35.07;28.70;;;4.80;1.00;7.10;100927.00;;;;5065554;28;20568;-79
2021/11/12 10:17:09;;;;;;;33.43;26.87;;;4.80;1.00;7.00;100929.00;;;;5058902;28;20459;-80
2021/11/12 10:19:45;;;;;;;38.87;28.17;;;4.80;1.00;7.10;100901.00;;;;5078410;28;20456;-79
2021/11/12 10:22:18;;;;;;;33.07;26.93;;;4.80;1.00;7.20;100908.00;;;;5069506;28;20549;-79
2021/11/12 10:24:55;;;;;;;33.27;26.93;;;4.90;1.00;7.20;100878.00;;;;5059039;28;20455;-80
2021/11/12 10:27:28;;;;;;;39.07;30.27;;;4.80;1.00;7.40;100889.00;;;;5075443;28;20447;-79
2021/11/12 10:30:01;;;;;;;37.57;29.90;;;4.90;1.00;7.50;100894.00;;;;5068487;28;20960;-79
2021/11/12 10:32:34;;;;;;;43.40;31.27;;;4.90;1.00;7.50;100891.00;;;;5074261;28;20483;-79
2021/11/12 10:35:08;;;;;;;37.27;30.40;;;5.00;1.00;7.30;100856.00;;;;5058215;28;20843;-78
2021/11/12 10:37:41;;;;;;;45.50;35.43;;;5.10;1.00;7.10;100889.00;;;;5059833;28;20446;-78
2021/11/12 10:40:13;;;;;;;39.47;31.30;;;5.00;1.00;7.10;100876.00;;;;5066512;28;20479;-78
2021/11/12 10:42:45;;;;;;;44.90;34.37;;;4.90;1.00;7.10;100873.00;;;;5087562;28;20539;-78
2021/11/12 10:45:19;;;;;;;41.17;31.03;;;4.90;1.00;7.00;100847.00;;;;5073812;28;20471;-77
2021/11/12 10:47:50;;;;;;;42.77;33.83;;;4.90;1.00;6.90;100859.00;;;;5089565;28;20445;-78
2021/11/12 10:50:21;;;;;;;39.60;30.60;;;4.90;1.00;6.80;100869.00;;;;5072661;28;20563;-78
2021/11/12 10:52:52;;;;;;;36.50;30.07;;;4.90;1.00;6.80;100844.00;;;;5081932;28;20455;-79
2021/11/12 10:55:23;;;;;;;41.10;32.77;;;4.80;1.00;7.00;100869.00;;;;5076211;28;20487;-79
2021/11/12 10:57:54;;;;;;;41.97;30.50;;;4.80;1.00;7.00;100866.00;;;;5075608;28;21414;-80
2021/11/12 11:00:25;;;;;;;36.37;29.57;;;4.80;1.00;7.00;100855.00;;;;5068711;28;20514;-78
2021/11/12 11:02:58;;;;;;;35.50;28.50;;;4.90;1.00;7.00;100861.00;;;;5050093;28;20452;-79
2021/11/12 11:05:30;;;;;;;35.83;29.30;;;4.80;1.00;7.00;100846.00;;;;5072985;28;20829;-79
2021/11/12 11:08:03;;;;;;;34.77;28.17;;;4.80;1.00;7.10;100830.00;;;;5068109;28;20906;-78
2021/11/12 11:10:36;;;;;;;36.50;29.80;;;4.90;1.00;7.10;100838.00;;;;5064256;28;20482;-79
2021/11/12 11:13:09;;;;;;;33.73;28.30;;;4.90;1.00;7.10;100843.00;;;;5059557;28;20491;-79
2021/11/12 11:16:01;;;;;;;33.13;28.43;;;4.90;1.00;7.10;100811.00;;;;5082247;28;20451;-79
2021/11/12 11:18:32;;;;;;;34.00;27.80;;;5.00;1.00;6.90;100799.00;;;;5077844;28;20455;-79
2021/11/12 11:21:15;;;;;;;32.60;27.47;;;5.00;1.00;7.00;100791.00;;;;5063326;28;20468;-79
2021/11/12 11:23:48;;;;;;;35.50;29.00;;;5.00;1.00;7.00;100777.00;;;;5063870;28;20484;-79
2021/11/12 11:26:21;;;;;;;31.70;26.10;;;4.90;1.00;6.80;100763.00;;;;5064416;28;20522;-79
2021/11/12 11:28:52;;;;;;;28.73;25.23;;;4.90;1.00;6.80;100768.00;;;;5069031;28;20547;-79
2021/11/12 11:31:28;;;;;;;32.93;27.33;;;4.90;1.00;7.00;100793.00;;;;5066625;28;20502;-79
2021/11/12 11:33:58;;;;;;;35.00;27.47;;;4.90;1.00;7.00;100795.00;;;;5056081;28;20534;-78
2021/11/12 11:36:30;;;;;;;38.80;29.57;;;4.90;1.00;6.80;100782.00;;;;5061448;28;20485;-79
2021/11/12 11:39:07;;;;;;;37.13;29.23;;;4.90;1.00;6.70;100797.00;;;;5075493;28;20490;-79
2021/11/12 11:41:37;;;;;;;36.60;26.80;;;4.80;1.00;6.70;100788.00;;;;5074189;28;20479;-79
2021/11/12 11:44:07;;;;;;;37.50;27.97;;;4.70;1.00;6.90;100806.00;;;;5051133;28;20463;-80
2021/11/12 11:46:39;;;;;;;35.73;28.20;;;4.80;1.00;6.90;100793.00;;;;5071541;28;20462;-80
2021/11/12 11:49:14;;;;;;;33.40;26.87;;;4.90;1.00;7.00;100802.00;;;;5062725;28;20562;-79
2021/11/12 11:51:50;;;;;;;32.60;26.40;;;4.90;1.00;6.90;100795.00;;;;5061378;28;20482;-78
2021/11/12 11:54:23;;;;;;;31.10;25.43;;;5.00;1.00;6.60;100797.00;;;;5060320;28;20461;-79
2021/11/12 11:56:54;;;;;;;31.07;25.80;;;4.90;1.00;6.40;100801.00;;;;5079723;28;20554;-80
2021/11/12 11:59:28;;;;;;;34.77;27.90;;;4.70;1.00;6.40;100793.00;;;;5077484;28;20979;-79
2021/11/12 12:01:58;;;;;;;33.13;26.43;;;4.70;1.00;6.70;100817.00;;;;5059346;28;20475;-80
2021/11/12 12:04:49;;;;;;;35.80;27.63;;;4.70;1.00;6.70;100784.00;;;;5065343;28;20574;-79
2021/11/12 12:07:28;;;;;;;36.23;27.97;;;4.70;1.00;6.60;100791.00;;;;5057217;28;20458;-79
2021/11/12 12:10:19;;;;;;;35.10;29.00;;;4.70;1.00;6.80;100782.00;;;;5074199;28;20448;-80
2021/11/12 12:13:00;;;;;;;36.07;29.00;;;4.60;1.00;6.80;100790.00;;;;5060640;28;20486;-79
2021/11/12 12:15:46;;;;;;;37.37;29.27;;;4.70;1.00;6.50;100757.00;;;;5066491;28;20451;-80
2021/11/12 12:18:31;;;;;;;37.23;28.97;;;4.70;1.00;6.60;100780.00;;;;5075502;28;20490;-78
2021/11/12 13:23:16;;;;;;;40.00;30.47;;;4.40;1.00;6.40;100748.00;;;;5053580;28;20477;-79
2021/11/12 13:25:48;;;;;;;37.83;29.70;;;4.40;1.00;6.40;100761.00;;;;5056867;28;20493;-78
2021/11/12 13:28:24;;;;;;;41.17;32.50;;;4.50;1.00;6.30;100772.00;;;;5047072;28;20509;-78
2021/11/12 13:30:58;;;;;;;38.33;30.57;;;4.50;1.00;6.30;100761.00;;;;5057945;28;20480;-79
2021/11/12 13:33:40;;;;;;;37.80;30.30;;;4.50;1.00;6.40;100722.00;;;;5056702;28;20459;-81
2021/11/12 13:36:21;;;;;;;38.70;31.13;;;4.50;1.00;6.50;100757.00;;;;5052060;28;20821;-79
2021/11/12 13:38:56;;;;;;;36.70;28.27;;;4.50;1.00;6.40;100652.00;;;;5075833;28;20452;-79
2021/11/12 13:41:28;;;;;;;40.70;31.50;;;4.50;1.00;6.50;100716.00;;;;5064824;28;20475;-80
2021/11/12 13:44:03;;;;;;;40.97;30.77;;;4.50;1.00;6.30;100765.00;;;;5059150;28;20524;-78
2021/11/12 13:46:46;;;;;;;41.63;30.47;;;4.60;1.00;6.30;100751.00;;;;5076930;28;20453;-79
2021/11/12 13:49:35;;;;;;;37.60;30.80;;;4.50;1.00;6.30;100753.00;;;;5059452;28;20473;-80
2021/11/12 13:52:07;;;;;;;41.40;31.57;;;4.50;1.00;6.30;100746.00;;;;5076271;28;20502;-77
2021/11/12 13:54:41;;;;;;;38.60;31.07;;;4.40;1.00;6.40;100748.00;;;;5074105;28;21170;-77
2021/11/12 13:57:14;;;;;;;41.07;31.63;;;4.50;1.00;6.30;100734.00;;;;5090833;28;20648;-77
2021/11/12 13:59:54;;;;;;;41.50;32.63;;;4.40;1.00;6.20;100748.00;;;;5072009;28;20469;-81
2021/11/12 14:02:24;;;;;;;42.80;32.60;;;4.40;1.00;6.20;100750.00;;;;5067013;28;20511;-79
2021/11/12 14:04:53;;;;;;;40.37;34.03;;;4.50;1.00;6.10;100730.00;;;;5077795;28;20448;-79
2021/11/12 14:07:24;;;;;;;40.17;31.70;;;4.40;1.00;6.10;100683.00;;;;5059776;28;20903;-80
2021/11/12 14:10:05;;;;;;;45.57;34.60;;;4.40;1.00;6.00;100741.00;;;;5077044;28;20510;-80
2021/11/12 14:12:35;;;;;;;43.73;35.63;;;4.40;1.00;5.90;100703.00;;;;5057553;28;20996;-77
2021/11/12 14:15:13;;;;;;;45.50;34.77;;;4.30;1.00;6.00;100723.00;;;;5055508;28;20490;-79
2021/11/12 14:17:55;;;;;;;50.10;37.00;;;4.30;1.00;5.90;100730.00;;;;5056394;28;20459;-77
2021/11/12 14:20:27;;;;;;;45.77;35.80;;;4.20;1.00;6.00;100716.00;;;;5056974;28;20459;-81
2021/11/12 14:23:07;;;;;;;47.37;36.93;;;4.30;1.00;6.10;100733.00;;;;5055648;28;20463;-77
2021/11/12 14:28:23;;;;;;;49.67;38.20;;;4.30;1.00;5.90;100712.00;;;;5044526;28;20577;-79
2021/11/12 14:33:47;;;;;;;52.50;39.57;;;4.30;1.00;6.00;100693.00;;;;5054675;28;20485;-78
2021/11/12 14:36:30;;;;;;;54.30;38.30;;;4.20;1.00;5.90;100699.00;;;;5049101;28;20481;-78
2021/11/12 14:45:08;;;;;;;54.70;37.70;;;4.00;1.00;5.90;100713.00;;;;5065241;28;20530;-82
2021/11/12 14:47:56;;;;;;;50.00;36.63;;;4.10;1.00;5.80;100717.00;;;;5046591;28;20440;-79
2021/11/12 14:50:42;;;;;;;57.80;39.20;;;4.10;1.00;5.90;100716.00;;;;5054441;28;20880;-79
2021/11/12 14:53:24;;;;;;;56.00;38.20;;;4.00;1.00;5.80;100712.00;;;;5054567;28;21067;-82
2021/11/12 14:56:01;;;;;;;59.80;39.80;;;4.00;1.00;5.90;100692.00;;;;5071313;28;20455;-78
2021/11/12 14:58:30;;;;;;;57.33;40.70;;;4.00;1.00;5.80;100686.00;;;;5071661;28;20936;-81
2021/11/12 15:01:07;;;;;;;61.93;41.87;;;4.10;1.00;5.70;100669.00;;;;5058501;28;20975;-79
2021/11/12 15:03:38;;;;;;;54.23;38.80;;;4.10;1.00;5.70;100694.00;;;;5056026;28;21144;-80
2021/11/12 15:06:10;;;;;;;62.23;42.50;;;4.10;1.00;5.60;100693.00;;;;5055582;28;20448;-77
2021/11/12 15:08:46;;;;;;;61.60;39.70;;;4.10;1.00;5.60;100690.00;;;;5085884;28;20514;-79